sensor_id;sensor_type;location;lat;lon;timestamp;temperature;humidity
67759;SHT31;54562;47.620;18.786;2023-04-02T00:03:21;7.89;77.44
67759;SHT31;54562;47.620;18.786;2023-04-02T00:06:33;7.88;77.48
67759;SHT31;54562;47.620;18.786;2023-04-02T00:09:47;7.87;77.53
67759;SHT31;54562;47.620;18.786;2023-04-02T00:13:01;7.86;77.59
67759;SHT31;54562;47.620;18.786;2023-04-02T00:16:12;7.86;77.71
67759;SHT31;54562;47.620;18.786;2023-04-02T00:19:24;7.87;77.65
67759;SHT31;54562;47.620;18.786;2023-04-02T00:25:40;7.87;77.59
67759;SHT31;54562;47.620;18.786;2023-04-02T00:28:48;7.86;77.62
67759;SHT31;54562;47.620;18.786;2023-04-02T00:31:55;7.85;77.67
67759;SHT31;54562;47.620;18.786;2023-04-02T00:35:04;7.83;77.61
67759;SHT31;54562;47.620;18.786;2023-04-02T00:38:18;7.81;77.59
67759;SHT31;54562;47.620;18.786;2023-04-02T00:41:28;7.78;77.51
67759;SHT31;54562;47.620;18.786;2023-04-02T00:44:39;7.75;77.51
67759;SHT31;54562;47.620;18.786;2023-04-02T00:47:47;7.71;77.50
67759;SHT31;54562;47.620;18.786;2023-04-02T00:50:54;7.67;77.62
67759;SHT31;54562;47.620;18.786;2023-04-02T00:54:04;7.66;77.74
67759;SHT31;54562;47.620;18.786;2023-04-02T00:57:19;7.65;77.74
67759;SHT31;54562;47.620;18.786;2023-04-02T01:00:29;7.62;77.83
67759;SHT31;54562;47.620;18.786;2023-04-02T01:03:36;7.61;77.86
67759;SHT31;54562;47.620;18.786;2023-04-02T01:06:43;7.58;77.84
67759;SHT31;54562;47.620;18.786;2023-04-02T01:10:01;7.58;77.90
67759;SHT31;54562;47.620;18.786;2023-04-02T01:13:21;7.57;77.70
67759;SHT31;54562;47.620;18.786;2023-04-02T01:16:37;7.53;77.46
67759;SHT31;54562;47.620;18.786;2023-04-02T01:20:04;7.49;77.74
67759;SHT31;54562;47.620;18.786;2023-04-02T01:23:29;7.50;78.06
67759;SHT31;54562;47.620;18.786;2023-04-02T01:26:44;7.51;78.25
67759;SHT31;54562;47.620;18.786;2023-04-02T01:29:56;7.54;78.31
67759;SHT31;54562;47.620;18.786;2023-04-02T01:33:04;7.56;78.38
67759;SHT31;54562;47.620;18.786;2023-04-02T01:36:13;7.57;78.49
67759;SHT31;54562;47.620;18.786;2023-04-02T01:39:32;7.59;78.49
67759;SHT31;54562;47.620;18.786;2023-04-02T01:42:40;7.56;78.55
67759;SHT31;54562;47.620;18.786;2023-04-02T01:45:57;7.53;78.60
67759;SHT31;54562;47.620;18.786;2023-04-02T01:49:11;7.49;78.57
67759;SHT31;54562;47.620;18.786;2023-04-02T01:52:34;7.47;78.61
67759;SHT31;54562;47.620;18.786;2023-04-02T01:55:41;7.41;78.72
67759;SHT31;54562;47.620;18.786;2023-04-02T01:58:49;7.38;78.81
67759;SHT31;54562;47.620;18.786;2023-04-02T02:01:57;7.34;78.93
67759;SHT31;54562;47.620;18.786;2023-04-02T02:05:10;7.32;79.00
67759;SHT31;54562;47.620;18.786;2023-04-02T02:08:31;7.31;79.15
67759;SHT31;54562;47.620;18.786;2023-04-02T02:11:50;7.30;79.30
67759;SHT31;54562;47.620;18.786;2023-04-02T02:14:57;7.33;79.37
67759;SHT31;54562;47.620;18.786;2023-04-02T02:18:04;7.34;79.40
67759;SHT31;54562;47.620;18.786;2023-04-02T02:21:11;7.35;79.40
67759;SHT31;54562;47.620;18.786;2023-04-02T02:24:32;7.38;79.47
67759;SHT31;54562;47.620;18.786;2023-04-02T02:27:44;7.43;79.60
67759;SHT31;54562;47.620;18.786;2023-04-02T02:30:57;7.46;79.60
67759;SHT31;54562;47.620;18.786;2023-04-02T02:34:07;7.49;79.60
67759;SHT31;54562;47.620;18.786;2023-04-02T02:37:21;7.52;79.66
67759;SHT31;54562;47.620;18.786;2023-04-02T02:40:33;7.54;79.74
67759;SHT31;54562;47.620;18.786;2023-04-02T02:43:45;7.56;79.90
67759;SHT31;54562;47.620;18.786;2023-04-02T02:46:56;7.57;80.04
67759;SHT31;54562;47.620;18.786;2023-04-02T02:50:07;7.59;80.03
67759;SHT31;54562;47.620;18.786;2023-04-02T02:53:21;7.61;80.12
67759;SHT31;54562;47.620;18.786;2023-04-02T02:56:28;7.63;80.19
67759;SHT31;54562;47.620;18.786;2023-04-02T02:59:36;7.63;80.20
67759;SHT31;54562;47.620;18.786;2023-04-02T03:02:45;7.64;80.22
67759;SHT31;54562;47.620;18.786;2023-04-02T03:05:55;7.64;80.22
67759;SHT31;54562;47.620;18.786;2023-04-02T03:09:05;7.64;80.20
67759;SHT31;54562;47.620;18.786;2023-04-02T03:12:30;7.64;80.20
67759;SHT31;54562;47.620;18.786;2023-04-02T03:15:45;7.65;80.20
67759;SHT31;54562;47.620;18.786;2023-04-02T03:18:57;7.65;80.17
67759;SHT31;54562;47.620;18.786;2023-04-02T03:22:12;7.66;80.26
67759;SHT31;54562;47.620;18.786;2023-04-02T03:25:27;7.65;80.29
67759;SHT31;54562;47.620;18.786;2023-04-02T03:28:42;7.66;80.30
67759;SHT31;54562;47.620;18.786;2023-04-02T03:31:55;7.65;80.31
67759;SHT31;54562;47.620;18.786;2023-04-02T03:35:05;7.63;80.23
67759;SHT31;54562;47.620;18.786;2023-04-02T03:38:26;7.59;80.28
67759;SHT31;54562;47.620;18.786;2023-04-02T03:41:37;7.58;80.31
67759;SHT31;54562;47.620;18.786;2023-04-02T03:44:50;7.56;80.29
67759;SHT31;54562;47.620;18.786;2023-04-02T03:48:01;7.55;80.33
67759;SHT31;54562;47.620;18.786;2023-04-02T03:51:15;7.56;80.37
67759;SHT31;54562;47.620;18.786;2023-04-02T03:54:26;7.55;80.49
67759;SHT31;54562;47.620;18.786;2023-04-02T03:57:34;7.57;80.43
67759;SHT31;54562;47.620;18.786;2023-04-02T04:00:47;7.57;80.41
67759;SHT31;54562;47.620;18.786;2023-04-02T04:04:00;7.57;80.50
67759;SHT31;54562;47.620;18.786;2023-04-02T04:07:17;7.54;80.53
67759;SHT31;54562;47.620;18.786;2023-04-02T04:10:26;7.53;80.50
67759;SHT31;54562;47.620;18.786;2023-04-02T04:13:35;7.51;80.54
67759;SHT31;54562;47.620;18.786;2023-04-02T04:16:49;7.49;80.59
67759;SHT31;54562;47.620;18.786;2023-04-02T04:19:59;7.46;80.64
67759;SHT31;54562;47.620;18.786;2023-04-02T04:23:16;7.45;80.86
67759;SHT31;54562;47.620;18.786;2023-04-02T04:26:34;7.47;81.02
67759;SHT31;54562;47.620;18.786;2023-04-02T04:29:47;7.47;81.02
67759;SHT31;54562;47.620;18.786;2023-04-02T04:33:00;7.48;81.07
67759;SHT31;54562;47.620;18.786;2023-04-02T04:36:15;7.50;81.18
67759;SHT31;54562;47.620;18.786;2023-04-02T04:39:33;7.52;81.21
67759;SHT31;54562;47.620;18.786;2023-04-02T04:42:44;7.55;81.29
67759;SHT31;54562;47.620;18.786;2023-04-02T04:45:57;7.57;81.36
67759;SHT31;54562;47.620;18.786;2023-04-02T04:49:10;7.60;81.41
67759;SHT31;54562;47.620;18.786;2023-04-02T04:52:23;7.62;81.53
67759;SHT31;54562;47.620;18.786;2023-04-02T04:55:33;7.66;81.61
67759;SHT31;54562;47.620;18.786;2023-04-02T04:58:43;7.71;81.66
67759;SHT31;54562;47.620;18.786;2023-04-02T05:01:54;7.76;81.70
67759;SHT31;54562;47.620;18.786;2023-04-02T05:05:13;7.85;81.61
67759;SHT31;54562;47.620;18.786;2023-04-02T05:08:23;7.94;81.64
67759;SHT31;54562;47.620;18.786;2023-04-02T05:11:35;8.07;81.75
67759;SHT31;54562;47.620;18.786;2023-04-02T05:14:47;8.26;81.72
67759;SHT31;54562;47.620;18.786;2023-04-02T05:18:01;8.47;81.63
67759;SHT31;54562;47.620;18.786;2023-04-02T05:21:18;8.70;81.47
67759;SHT31;54562;47.620;18.786;2023-04-02T05:24:34;8.87;81.25
67759;SHT31;54562;47.620;18.786;2023-04-02T05:27:46;8.93;80.93
67759;SHT31;54562;47.620;18.786;2023-04-02T05:30:58;8.93;80.82
67759;SHT31;54562;47.620;18.786;2023-04-02T05:34:08;8.93;80.80
67759;SHT31;54562;47.620;18.786;2023-04-02T05:37:17;8.92;80.78
67759;SHT31;54562;47.620;18.786;2023-04-02T05:40:28;8.91;80.69
67759;SHT31;54562;47.620;18.786;2023-04-02T05:43:38;8.96;80.78
67759;SHT31;54562;47.620;18.786;2023-04-02T05:46:52;9.07;80.84
67759;SHT31;54562;47.620;18.786;2023-04-02T05:50:09;9.27;80.88
67759;SHT31;54562;47.620;18.786;2023-04-02T05:53:24;9.40;80.71
67759;SHT31;54562;47.620;18.786;2023-04-02T05:56:33;9.44;80.49
67759;SHT31;54562;47.620;18.786;2023-04-02T05:59:46;9.46;80.51
67759;SHT31;54562;47.620;18.786;2023-04-02T06:02:57;9.47;80.36
67759;SHT31;54562;47.620;18.786;2023-04-02T06:06:12;9.49;80.25
67759;SHT31;54562;47.620;18.786;2023-04-02T06:09:26;9.52;80.25
67759;SHT31;54562;47.620;18.786;2023-04-02T06:12:40;9.55;80.13
67759;SHT31;54562;47.620;18.786;2023-04-02T06:15:52;9.58;80.12
67759;SHT31;54562;47.620;18.786;2023-04-02T06:18:59;9.61;80.17
67759;SHT31;54562;47.620;18.786;2023-04-02T06:22:09;9.63;80.01
67759;SHT31;54562;47.620;18.786;2023-04-02T06:25:24;9.68;80.03
67759;SHT31;54562;47.620;18.786;2023-04-02T06:28:35;9.74;79.92
67759;SHT31;54562;47.620;18.786;2023-04-02T06:31:53;9.81;79.74
67759;SHT31;54562;47.620;18.786;2023-04-02T06:35:04;9.90;79.93
67759;SHT31;54562;47.620;18.786;2023-04-02T06:38:17;9.97;79.58
67759;SHT31;54562;47.620;18.786;2023-04-02T06:41:30;10.02;79.51
67759;SHT31;54562;47.620;18.786;2023-04-02T06:44:37;10.08;79.44
67759;SHT31;54562;47.620;18.786;2023-04-02T06:47:44;10.13;79.33
67759;SHT31;54562;47.620;18.786;2023-04-02T06:50:55;10.22;79.30
67759;SHT31;54562;47.620;18.786;2023-04-02T06:54:06;10.33;79.30
67759;SHT31;54562;47.620;18.786;2023-04-02T06:57:20;10.43;79.12
67759;SHT31;54562;47.620;18.786;2023-04-02T07:00:27;10.52;78.97
67759;SHT31;54562;47.620;18.786;2023-04-02T07:03:37;10.60;78.82
67759;SHT31;54562;47.620;18.786;2023-04-02T07:06:46;10.68;78.53
67759;SHT31;54562;47.620;18.786;2023-04-02T07:09:53;10.75;78.40
67759;SHT31;54562;47.620;18.786;2023-04-02T07:13:00;10.81;78.24
67759;SHT31;54562;47.620;18.786;2023-04-02T07:16:10;10.88;78.04
67759;SHT31;54562;47.620;18.786;2023-04-02T07:19:28;10.94;77.93
67759;SHT31;54562;47.620;18.786;2023-04-02T07:22:35;11.00;77.81
67759;SHT31;54562;47.620;18.786;2023-04-02T07:25:42;11.07;77.83
67759;SHT31;54562;47.620;18.786;2023-04-02T07:28:50;11.15;77.75
67759;SHT31;54562;47.620;18.786;2023-04-02T07:31:57;11.20;77.70
67759;SHT31;54562;47.620;18.786;2023-04-02T07:35:05;11.25;77.48
67759;SHT31;54562;47.620;18.786;2023-04-02T07:38:12;11.31;77.34
67759;SHT31;54562;47.620;18.786;2023-04-02T07:41:20;11.40;77.42
67759;SHT31;54562;47.620;18.786;2023-04-02T07:44:27;11.50;77.36
67759;SHT31;54562;47.620;18.786;2023-04-02T07:47:35;11.60;76.98
67759;SHT31;54562;47.620;18.786;2023-04-02T07:50:42;11.66;76.83
67759;SHT31;54562;47.620;18.786;2023-04-02T07:53:48;11.75;76.59
67759;SHT31;54562;47.620;18.786;2023-04-02T07:56:59;11.84;76.32
67759;SHT31;54562;47.620;18.786;2023-04-02T08:00:07;11.93;76.43
67759;SHT31;54562;47.620;18.786;2023-04-02T08:03:15;11.99;75.92
67759;SHT31;54562;47.620;18.786;2023-04-02T08:06:22;12.01;75.85
67759;SHT31;54562;47.620;18.786;2023-04-02T08:09:30;12.05;75.88
67759;SHT31;54562;47.620;18.786;2023-04-02T08:12:36;12.05;75.70
67759;SHT31;54562;47.620;18.786;2023-04-02T08:15:43;12.05;75.93
67759;SHT31;54562;47.620;18.786;2023-04-02T08:18:49;12.06;75.70
67759;SHT31;54562;47.620;18.786;2023-04-02T08:21:56;12.04;75.53
67759;SHT31;54562;47.620;18.786;2023-04-02T08:25:03;12.02;75.63
67759;SHT31;54562;47.620;18.786;2023-04-02T08:28:10;12.00;75.77
67759;SHT31;54562;47.620;18.786;2023-04-02T08:31:19;12.01;75.62
67759;SHT31;54562;47.620;18.786;2023-04-02T08:34:29;11.99;75.60
67759;SHT31;54562;47.620;18.786;2023-04-02T08:37:37;11.99;75.54
67759;SHT31;54562;47.620;18.786;2023-04-02T08:40:49;11.99;75.35
67759;SHT31;54562;47.620;18.786;2023-04-02T08:47:34;12.03;75.37
67759;SHT31;54562;47.620;18.786;2023-04-02T08:50:45;12.06;75.69
67759;SHT31;54562;47.620;18.786;2023-04-02T08:53:59;12.06;75.37
67759;SHT31;54562;47.620;18.786;2023-04-02T08:57:13;12.08;75.69
67759;SHT31;54562;47.620;18.786;2023-04-02T09:00:32;12.12;75.71
67759;SHT31;54562;47.620;18.786;2023-04-02T09:03:42;12.14;75.49
67759;SHT31;54562;47.620;18.786;2023-04-02T09:06:52;12.15;75.40
67759;SHT31;54562;47.620;18.786;2023-04-02T09:10:01;12.15;75.00
67759;SHT31;54562;47.620;18.786;2023-04-02T09:13:12;12.16;75.02
67759;SHT31;54562;47.620;18.786;2023-04-02T09:16:25;12.18;75.01
67759;SHT31;54562;47.620;18.786;2023-04-02T09:19:48;12.22;74.82
67759;SHT31;54562;47.620;18.786;2023-04-02T09:23:01;12.27;74.65
67759;SHT31;54562;47.620;18.786;2023-04-02T09:26:11;12.32;74.53
67759;SHT31;54562;47.620;18.786;2023-04-02T09:29:30;12.38;74.55
67759;SHT31;54562;47.620;18.786;2023-04-02T09:32:47;12.45;74.71
67759;SHT31;54562;47.620;18.786;2023-04-02T09:35:55;12.52;74.65
67759;SHT31;54562;47.620;18.786;2023-04-02T09:39:08;12.59;74.06
67759;SHT31;54562;47.620;18.786;2023-04-02T09:42:30;12.64;73.85
67759;SHT31;54562;47.620;18.786;2023-04-02T09:45:38;12.73;73.73
67759;SHT31;54562;47.620;18.786;2023-04-02T09:48:50;12.80;73.77
67759;SHT31;54562;47.620;18.786;2023-04-02T09:52:08;12.90;73.40
67759;SHT31;54562;47.620;18.786;2023-04-02T09:55:24;12.99;73.69
67759;SHT31;54562;47.620;18.786;2023-04-02T09:58:33;13.07;73.33
67759;SHT31;54562;47.620;18.786;2023-04-02T10:01:40;13.16;73.32
67759;SHT31;54562;47.620;18.786;2023-04-02T10:04:48;13.25;73.10
67759;SHT31;54562;47.620;18.786;2023-04-02T10:07:56;13.28;73.21
67759;SHT31;54562;47.620;18.786;2023-04-02T10:11:13;13.32;73.40
67759;SHT31;54562;47.620;18.786;2023-04-02T10:14:24;13.39;72.90
67759;SHT31;54562;47.620;18.786;2023-04-02T10:17:36;13.43;72.76
67759;SHT31;54562;47.620;18.786;2023-04-02T10:20:43;13.44;72.69
67759;SHT31;54562;47.620;18.786;2023-04-02T10:23:57;13.46;72.63
67759;SHT31;54562;47.620;18.786;2023-04-02T10:27:08;13.49;72.55
67759;SHT31;54562;47.620;18.786;2023-04-02T10:30:28;13.57;72.85
67759;SHT31;54562;47.620;18.786;2023-04-02T10:33:45;13.67;72.52
67759;SHT31;54562;47.620;18.786;2023-04-02T10:36:54;13.75;72.43
67759;SHT31;54562;47.620;18.786;2023-04-02T10:40:04;13.78;72.09
67759;SHT31;54562;47.620;18.786;2023-04-02T10:43:29;13.76;71.82
67759;SHT31;54562;47.620;18.786;2023-04-02T10:46:58;13.76;71.51
67759;SHT31;54562;47.620;18.786;2023-04-02T10:50:24;13.84;71.39
67759;SHT31;54562;47.620;18.786;2023-04-02T10:53:37;14.00;71.03
67759;SHT31;54562;47.620;18.786;2023-04-02T10:56:49;14.05;70.78
67759;SHT31;54562;47.620;18.786;2023-04-02T11:00:03;14.07;71.31
67759;SHT31;54562;47.620;18.786;2023-04-02T11:03:22;14.14;71.16
67759;SHT31;54562;47.620;18.786;2023-04-02T11:06:37;14.33;71.32
67759;SHT31;54562;47.620;18.786;2023-04-02T11:09:51;14.50;70.56
67759;SHT31;54562;47.620;18.786;2023-04-02T11:13:01;14.51;70.28
67759;SHT31;54562;47.620;18.786;2023-04-02T11:16:13;14.47;69.84
67759;SHT31;54562;47.620;18.786;2023-04-02T11:19:21;14.51;69.78
67759;SHT31;54562;47.620;18.786;2023-04-02T11:22:30;14.58;70.00
67759;SHT31;54562;47.620;18.786;2023-04-02T11:25:36;14.67;69.83
67759;SHT31;54562;47.620;18.786;2023-04-02T11:28:43;14.83;69.65
67759;SHT31;54562;47.620;18.786;2023-04-02T11:32:11;15.35;70.53
67759;SHT31;54562;47.620;18.786;2023-04-02T11:38:49;16.59;68.83
67759;SHT31;54562;47.620;18.786;2023-04-02T11:42:05;17.04;67.39
67759;SHT31;54562;47.620;18.786;2023-04-02T11:45:51;17.41;66.08
67759;SHT31;54562;47.620;18.786;2023-04-02T11:52:48;17.48;63.78
67759;SHT31;54562;47.620;18.786;2023-04-02T11:56:06;17.10;63.97
67759;SHT31;54562;47.620;18.786;2023-04-02T11:59:25;16.66;64.35
67759;SHT31;54562;47.620;18.786;2023-04-02T12:05:44;16.00;64.52
67759;SHT31;54562;47.620;18.786;2023-04-02T12:09:04;15.86;64.63
67759;SHT31;54562;47.620;18.786;2023-04-02T12:12:24;16.31;64.82
67759;SHT31;54562;47.620;18.786;2023-04-02T12:15:41;16.50;64.01
67759;SHT31;54562;47.620;18.786;2023-04-02T12:18:49;16.74;64.13
67759;SHT31;54562;47.620;18.786;2023-04-02T12:21:58;17.29;63.64
67759;SHT31;54562;47.620;18.786;2023-04-02T12:25:17;17.74;62.86
67759;SHT31;54562;47.620;18.786;2023-04-02T12:28:31;17.92;61.78
67759;SHT31;54562;47.620;18.786;2023-04-02T12:31:42;17.71;60.85
67759;SHT31;54562;47.620;18.786;2023-04-02T12:34:51;17.40;61.11
67759;SHT31;54562;47.620;18.786;2023-04-02T12:38:00;16.98;61.84
67759;SHT31;54562;47.620;18.786;2023-04-02T12:41:16;16.57;62.22
67759;SHT31;54562;47.620;18.786;2023-04-02T12:44:27;16.61;63.66
67759;SHT31;54562;47.620;18.786;2023-04-02T12:47:35;17.15;62.70
67759;SHT31;54562;47.620;18.786;2023-04-02T12:50:41;17.65;61.21
67759;SHT31;54562;47.620;18.786;2023-04-02T12:53:50;17.98;60.71
67759;SHT31;54562;47.620;18.786;2023-04-02T13:00:41;17.63;59.72
67759;SHT31;54562;47.620;18.786;2023-04-02T13:03:59;18.03;60.18
67759;SHT31;54562;47.620;18.786;2023-04-02T13:07:13;17.95;58.88
67759;SHT31;54562;47.620;18.786;2023-04-02T13:10:30;17.38;58.67
67759;SHT31;54562;47.620;18.786;2023-04-02T13:13:38;16.77;59.49
67759;SHT31;54562;47.620;18.786;2023-04-02T13:16:47;16.27;60.34
67759;SHT31;54562;47.620;18.786;2023-04-02T13:19:55;16.01;60.82
67759;SHT31;54562;47.620;18.786;2023-04-02T13:23:39;16.48;61.00
67759;SHT31;54562;47.620;18.786;2023-04-02T13:26:46;17.06;61.04
67759;SHT31;54562;47.620;18.786;2023-04-02T13:29:54;17.04;59.41
67759;SHT31;54562;47.620;18.786;2023-04-02T13:33:10;16.79;58.47
67759;SHT31;54562;47.620;18.786;2023-04-02T13:36:17;16.86;57.78
67759;SHT31;54562;47.620;18.786;2023-04-02T13:39:24;17.21;58.33
67759;SHT31;54562;47.620;18.786;2023-04-02T13:42:32;17.55;58.64
67759;SHT31;54562;47.620;18.786;2023-04-02T13:45:39;17.58;58.42
67759;SHT31;54562;47.620;18.786;2023-04-02T13:48:47;17.90;59.24
67759;SHT31;54562;47.620;18.786;2023-04-02T13:51:54;18.21;57.84
67759;SHT31;54562;47.620;18.786;2023-04-02T13:55:05;18.15;57.66
67759;SHT31;54562;47.620;18.786;2023-04-02T13:58:13;17.81;57.55
67759;SHT31;54562;47.620;18.786;2023-04-02T14:01:21;17.33;57.92
67759;SHT31;54562;47.620;18.786;2023-04-02T14:04:30;16.81;58.78
67759;SHT31;54562;47.620;18.786;2023-04-02T14:07:44;16.36;59.47
67759;SHT31;54562;47.620;18.786;2023-04-02T14:13:26;15.69;60.24
67759;SHT31;54562;47.620;18.786;2023-04-02T14:16:58;15.35;60.92
67759;SHT31;54562;47.620;18.786;2023-04-02T14:20:31;15.14;61.20
67759;SHT31;54562;47.620;18.786;2023-04-02T14:24:00;15.03;61.71
67759;SHT31;54562;47.620;18.786;2023-04-02T14:27:30;15.34;61.93
67759;SHT31;54562;47.620;18.786;2023-04-02T14:30:52;15.82;61.70
67759;SHT31;54562;47.620;18.786;2023-04-02T14:34:24;16.04;61.59
67759;SHT31;54562;47.620;18.786;2023-04-02T14:37:47;16.21;60.91
67759;SHT31;54562;47.620;18.786;2023-04-02T14:41:09;16.60;60.55
67759;SHT31;54562;47.620;18.786;2023-04-02T14:44:35;16.98;60.46
67759;SHT31;54562;47.620;18.786;2023-04-02T14:47:49;17.20;59.88
67759;SHT31;54562;47.620;18.786;2023-04-02T14:51:06;17.10;59.39
67759;SHT31;54562;47.620;18.786;2023-04-02T14:54:34;16.94;59.70
67759;SHT31;54562;47.620;18.786;2023-04-02T14:57:53;16.84;59.68
67759;SHT31;54562;47.620;18.786;2023-04-02T15:01:08;16.45;59.82
67759;SHT31;54562;47.620;18.786;2023-04-02T15:04:24;16.09;60.53
67759;SHT31;54562;47.620;18.786;2023-04-02T15:07:51;15.86;61.67
67759;SHT31;54562;47.620;18.786;2023-04-02T15:11:07;16.04;61.88
67759;SHT31;54562;47.620;18.786;2023-04-02T15:14:26;16.31;61.90
67759;SHT31;54562;47.620;18.786;2023-04-02T15:17:49;16.54;61.14
67759;SHT31;54562;47.620;18.786;2023-04-02T15:20:58;16.61;60.36
67759;SHT31;54562;47.620;18.786;2023-04-02T15:24:29;16.59;59.97
67759;SHT31;54562;47.620;18.786;2023-04-02T15:27:56;16.48;59.40
67759;SHT31;54562;47.620;18.786;2023-04-02T15:31:19;16.26;58.79
67759;SHT31;54562;47.620;18.786;2023-04-02T15:34:33;16.12;58.89
67759;SHT31;54562;47.620;18.786;2023-04-02T15:38:02;15.97;58.22
67759;SHT31;54562;47.620;18.786;2023-04-02T15:41:21;15.78;57.56
67759;SHT31;54562;47.620;18.786;2023-04-02T15:44:37;15.56;56.92
67759;SHT31;54562;47.620;18.786;2023-04-02T15:51:58;15.21;57.35
67759;SHT31;54562;47.620;18.786;2023-04-02T15:55:25;15.06;57.12
67759;SHT31;54562;47.620;18.786;2023-04-02T15:58:46;14.92;56.62
67759;SHT31;54562;47.620;18.786;2023-04-02T16:02:34;14.77;57.48
67759;SHT31;54562;47.620;18.786;2023-04-02T16:09:27;14.26;57.19
67759;SHT31;54562;47.620;18.786;2023-04-02T16:12:46;14.07;57.71
67759;SHT31;54562;47.620;18.786;2023-04-02T16:16:02;13.98;57.97
67759;SHT31;54562;47.620;18.786;2023-04-02T16:19:18;13.91;57.95
67759;SHT31;54562;47.620;18.786;2023-04-02T16:22:33;13.79;58.10
67759;SHT31;54562;47.620;18.786;2023-04-02T16:26:04;13.61;57.82
67759;SHT31;54562;47.620;18.786;2023-04-02T16:29:37;13.45;58.48
67759;SHT31;54562;47.620;18.786;2023-04-02T16:33:04;13.32;59.01
67759;SHT31;54562;47.620;18.786;2023-04-02T16:36:37;13.19;58.83
67759;SHT31;54562;47.620;18.786;2023-04-02T16:39:57;13.00;58.96
67759;SHT31;54562;47.620;18.786;2023-04-02T16:43:21;12.81;59.36
67759;SHT31;54562;47.620;18.786;2023-04-02T16:46:39;12.59;59.38
67759;SHT31;54562;47.620;18.786;2023-04-02T16:50:06;12.37;59.64
67759;SHT31;54562;47.620;18.786;2023-04-02T16:53:27;12.16;59.85
67759;SHT31;54562;47.620;18.786;2023-04-02T16:57:06;11.95;60.33
67759;SHT31;54562;47.620;18.786;2023-04-02T17:00:31;11.76;60.92
67759;SHT31;54562;47.620;18.786;2023-04-02T17:03:57;11.59;60.76
67759;SHT31;54562;47.620;18.786;2023-04-02T17:07:27;11.44;60.90
67759;SHT31;54562;47.620;18.786;2023-04-02T17:10:49;11.26;61.03
67759;SHT31;54562;47.620;18.786;2023-04-02T17:14:05;11.07;61.19
67759;SHT31;54562;47.620;18.786;2023-04-02T17:17:31;10.89;61.45
67759;SHT31;54562;47.620;18.786;2023-04-02T17:20:39;10.73;61.67
67759;SHT31;54562;47.620;18.786;2023-04-02T17:23:50;10.60;62.13
67759;SHT31;54562;47.620;18.786;2023-04-02T17:27:07;10.48;62.32
67759;SHT31;54562;47.620;18.786;2023-04-02T17:30:32;10.35;62.46
67759;SHT31;54562;47.620;18.786;2023-04-02T17:33:44;10.21;62.67
67759;SHT31;54562;47.620;18.786;2023-04-02T17:36:55;10.09;63.03
67759;SHT31;54562;47.620;18.786;2023-04-02T17:40:21;9.97;63.43
67759;SHT31;54562;47.620;18.786;2023-04-02T17:43:39;9.82;63.55
67759;SHT31;54562;47.620;18.786;2023-04-02T17:46:57;9.66;63.76
67759;SHT31;54562;47.620;18.786;2023-04-02T17:50:31;9.51;63.61
67759;SHT31;54562;47.620;18.786;2023-04-02T17:53:53;9.37;63.53
67759;SHT31;54562;47.620;18.786;2023-04-02T17:57:21;9.24;63.82
67759;SHT31;54562;47.620;18.786;2023-04-02T18:00:48;9.11;64.18
67759;SHT31;54562;47.620;18.786;2023-04-02T18:04:12;8.95;64.42
67759;SHT31;54562;47.620;18.786;2023-04-02T18:07:37;8.79;64.68
67759;SHT31;54562;47.620;18.786;2023-04-02T18:11:00;8.66;64.93
67759;SHT31;54562;47.620;18.786;2023-04-02T18:14:26;8.52;65.17
67759;SHT31;54562;47.620;18.786;2023-04-02T18:17:48;8.39;65.39
67759;SHT31;54562;47.620;18.786;2023-04-02T18:21:00;8.26;65.63
67759;SHT31;54562;47.620;18.786;2023-04-02T18:24:26;8.13;65.76
67759;SHT31;54562;47.620;18.786;2023-04-02T18:28:10;8.00;65.82
67759;SHT31;54562;47.620;18.786;2023-04-02T18:31:45;7.89;65.90
67759;SHT31;54562;47.620;18.786;2023-04-02T18:35:11;7.79;66.02
67759;SHT31;54562;47.620;18.786;2023-04-02T18:38:27;7.68;66.19
67759;SHT31;54562;47.620;18.786;2023-04-02T18:41:49;7.58;66.31
67759;SHT31;54562;47.620;18.786;2023-04-02T18:45:09;7.49;66.57
67759;SHT31;54562;47.620;18.786;2023-04-02T18:48:29;7.39;66.76
67759;SHT31;54562;47.620;18.786;2023-04-02T18:51:55;7.30;66.81
67759;SHT31;54562;47.620;18.786;2023-04-02T18:55:12;7.20;66.94
67759;SHT31;54562;47.620;18.786;2023-04-02T18:58:26;7.12;67.03
67759;SHT31;54562;47.620;18.786;2023-04-02T19:01:43;7.05;67.04
67759;SHT31;54562;47.620;18.786;2023-04-02T19:04:57;6.98;67.18
67759;SHT31;54562;47.620;18.786;2023-04-02T19:08:12;6.91;67.14
67759;SHT31;54562;47.620;18.786;2023-04-02T19:11:24;6.82;67.21
67759;SHT31;54562;47.620;18.786;2023-04-02T19:14:33;6.74;67.43
67759;SHT31;54562;47.620;18.786;2023-04-02T19:17:40;6.68;67.50
67759;SHT31;54562;47.620;18.786;2023-04-02T19:20:52;6.59;67.61
67759;SHT31;54562;47.620;18.786;2023-04-02T19:24:10;6.51;67.65
67759;SHT31;54562;47.620;18.786;2023-04-02T19:27:38;6.43;67.77
67759;SHT31;54562;47.620;18.786;2023-04-02T19:31:12;6.34;67.93
67759;SHT31;54562;47.620;18.786;2023-04-02T19:34:36;6.26;68.03
67759;SHT31;54562;47.620;18.786;2023-04-02T19:37:54;6.17;68.11
67759;SHT31;54562;47.620;18.786;2023-04-02T19:41:14;6.08;68.22
67759;SHT31;54562;47.620;18.786;2023-04-02T19:44:33;6.01;68.27
67759;SHT31;54562;47.620;18.786;2023-04-02T19:47:44;5.94;68.38
67759;SHT31;54562;47.620;18.786;2023-04-02T19:50:53;5.90;68.47
67759;SHT31;54562;47.620;18.786;2023-04-02T19:54:02;5.85;68.62
67759;SHT31;54562;47.620;18.786;2023-04-02T20:00:21;5.84;68.85
67759;SHT31;54562;47.620;18.786;2023-04-02T20:03:29;5.85;68.89
67759;SHT31;54562;47.620;18.786;2023-04-02T20:06:38;5.86;69.06
67759;SHT31;54562;47.620;18.786;2023-04-02T20:09:46;5.88;69.07
67759;SHT31;54562;47.620;18.786;2023-04-02T20:12:54;5.90;69.05
67759;SHT31;54562;47.620;18.786;2023-04-02T20:16:03;5.91;69.07
67759;SHT31;54562;47.620;18.786;2023-04-02T20:19:12;5.92;68.96
67759;SHT31;54562;47.620;18.786;2023-04-02T20:22:20;5.94;68.98
67759;SHT31;54562;47.620;18.786;2023-04-02T20:25:29;5.95;68.94
67759;SHT31;54562;47.620;18.786;2023-04-02T20:28:37;5.95;68.90
67759;SHT31;54562;47.620;18.786;2023-04-02T20:31:45;5.96;69.01
67759;SHT31;54562;47.620;18.786;2023-04-02T20:34:53;5.97;69.03
67759;SHT31;54562;47.620;18.786;2023-04-02T20:38:02;5.97;69.03
67759;SHT31;54562;47.620;18.786;2023-04-02T20:41:11;5.97;69.04
67759;SHT31;54562;47.620;18.786;2023-04-02T20:44:19;5.97;68.89
67759;SHT31;54562;47.620;18.786;2023-04-02T20:47:30;5.96;68.79
67759;SHT31;54562;47.620;18.786;2023-04-02T20:50:39;5.97;68.86
67759;SHT31;54562;47.620;18.786;2023-04-02T20:53:48;5.97;68.86